Time;durP1;ratioP1;P1;durP2;ratioP2;P2;SDS_P1;SDS_P2;PMS_P1;PMS_P2;Temp;Humidity;BMP_temperature;BMP_pressure;BME280_temperature;BME280_humidity;BME280_pressure;Samples;Min_cycle;Max_cycle;Signal;HPM_P1;HPM_P2
2020/12/20 00:02:03;;;;;;;17.67;11.30;;;;;;;;;;4981708;28;20653;-74
2020/12/20 00:05:08;;;;;;;21.67;12.53;;;;;;;;;;4973651;28;20602;-74
2020/12/20 00:08:12;;;;;;;18.87;11.93;;;;;;;;;;4981554;28;20621;-75
2020/12/20 00:11:16;;;;;;;20.33;12.83;;;;;;;;;;4970241;28;20624;-75
2020/12/20 00:14:34;;;;;;;20.20;12.47;;;;;;;;;;4993356;28;20621;-74
2020/12/20 00:17:39;;;;;;;17.23;11.53;;;;;;;;;;4981424;28;20598;-74
2020/12/20 00:20:43;;;;;;;19.03;12.27;;;;;;;;;;4981593;28;20653;-75
2020/12/20 00:23:47;;;;;;;17.17;11.20;;;;;;;;;;4994032;28;20597;-74
2020/12/20 00:26:51;;;;;;;18.97;11.53;;;;;;;;;;4993405;28;21155;-75
2020/12/20 00:29:56;;;;;;;24.13;12.23;;;;;;;;;;4974298;28;20539;-74
2020/12/20 00:33:00;;;;;;;20.07;11.20;;;;;;;;;;4980565;28;20977;-74
2020/12/20 00:36:07;;;;;;;18.13;11.40;;;;;;;;;;4997781;28;21171;-74
2020/12/20 00:39:13;;;;;;;19.17;12.27;;;;;;;;;;4997093;28;20593;-74
2020/12/20 00:42:17;;;;;;;16.17;10.73;;;;;;;;;;4973884;28;20668;-74
2020/12/20 00:45:21;;;;;;;18.20;11.57;;;;;;;;;;4985183;28;21119;-75
2020/12/20 00:48:25;;;;;;;19.70;11.53;;;;;;;;;;4973747;28;20597;-74
2020/12/20 00:51:33;;;;;;;16.90;11.40;;;;;;;;;;4985232;28;20625;-74
2020/12/20 00:54:37;;;;;;;18.80;11.87;;;;;;;;;;4985012;28;20577;-74
2020/12/20 00:57:44;;;;;;;22.90;12.23;;;;;;;;;;4977940;28;20632;-74
2020/12/20 01:00:48;;;;;;;18.43;11.80;;;;;;;;;;4984901;28;20633;-74
2020/12/20 01:03:53;;;;;;;18.90;11.27;;;;;;;;;;4985049;28;21099;-74
2020/12/20 01:06:58;;;;;;;16.73;11.47;;;;;;;;;;4984637;28;20961;-74
2020/12/20 01:10:04;;;;;;;19.23;12.10;;;;;;;;;;4977174;28;20601;-74
2020/12/20 01:13:09;;;;;;;18.50;11.63;;;;;;;;;;4988289;28;20586;-74
2020/12/20 01:16:20;;;;;;;19.00;11.83;;;;;;;;;;4984984;28;20555;-74
2020/12/20 01:19:25;;;;;;;18.83;12.27;;;;;;;;;;4984561;28;20589;-74
2020/12/20 01:22:30;;;;;;;20.07;11.97;;;;;;;;;;4973312;28;20652;-74
2020/12/20 01:25:35;;;;;;;21.83;13.07;;;;;;;;;;4984657;28;20558;-74
2020/12/20 01:28:52;;;;;;;20.87;12.20;;;;;;;;;;4973061;28;20959;-74
2020/12/20 01:31:57;;;;;;;19.90;12.37;;;;;;;;;;4984646;28;20617;-74
2020/12/20 01:35:05;;;;;;;20.77;12.23;;;;;;;;;;4973181;28;20577;-74
2020/12/20 01:38:10;;;;;;;25.53;13.53;;;;;;;;;;4984422;28;21193;-74
2020/12/20 01:41:15;;;;;;;21.80;12.77;;;;;;;;;;4973463;28;20658;-74
2020/12/20 01:44:22;;;;;;;20.83;12.63;;;;;;;;;;4972529;28;20901;-75
2020/12/20 01:47:30;;;;;;;21.83;13.80;;;;;;;;;;4976664;28;20546;-74
2020/12/20 01:50:37;;;;;;;20.70;13.27;;;;;;;;;;4969936;28;20601;-75
2020/12/20 01:53:42;;;;;;;20.33;12.67;;;;;;;;;;4983917;28;20557;-74
2020/12/20 01:56:48;;;;;;;23.43;12.73;;;;;;;;;;4983502;28;20592;-75
2020/12/20 02:00:00;;;;;;;18.73;11.57;;;;;;;;;;4983870;28;21080;-75
2020/12/20 02:03:20;;;;;;;20.83;12.70;;;;;;;;;;4995709;28;20609;-74
2020/12/20 02:06:24;;;;;;;20.50;12.20;;;;;;;;;;4995648;28;20589;-74
2020/12/20 02:09:34;;;;;;;32.57;12.43;;;;;;;;;;4972481;28;20589;-74
2020/12/20 02:12:39;;;;;;;18.13;11.07;;;;;;;;;;4983285;28;21007;-74
2020/12/20 02:15:50;;;;;;;22.67;12.33;;;;;;;;;;4983434;28;20594;-75
2020/12/20 02:18:55;;;;;;;30.43;11.63;;;;;;;;;;4983281;28;20991;-74
2020/12/20 02:21:59;;;;;;;17.80;12.37;;;;;;;;;;4983492;28;20657;-75
2020/12/20 02:25:05;;;;;;;28.23;12.13;;;;;;;;;;4983376;28;20597;-74
2020/12/20 02:28:28;;;;;;;22.30;13.00;;;;;;;;;;4982966;28;20597;-74
2020/12/20 02:31:46;;;;;;;22.23;12.60;;;;;;;;;;4995548;28;20630;-74
2020/12/20 02:34:52;;;;;;;21.03;13.30;;;;;;;;;;4983596;28;20908;-74
2020/12/20 02:37:56;;;;;;;35.90;12.53;;;;;;;;;;4963583;28;20604;-74
2020/12/20 02:41:01;;;;;;;20.37;12.50;;;;;;;;;;4972631;28;20652;-75
2020/12/20 02:44:05;;;;;;;21.23;13.63;;;;;;;;;;4980928;28;20597;-75
2020/12/20 02:47:10;;;;;;;20.87;13.10;;;;;;;;;;4993961;28;20636;-74
2020/12/20 02:50:15;;;;;;;24.53;13.07;;;;;;;;;;4994221;28;20963;-75
2020/12/20 02:53:20;;;;;;;20.07;12.60;;;;;;;;;;4971270;28;20624;-74
2020/12/20 02:56:25;;;;;;;21.73;12.97;;;;;;;;;;4982955;28;20608;-74
2020/12/20 02:59:31;;;;;;;23.80;13.27;;;;;;;;;;4963823;28;20542;-74
2020/12/20 03:02:36;;;;;;;20.43;13.33;;;;;;;;;;4977318;28;21250;-74
2020/12/20 03:05:40;;;;;;;20.17;12.07;;;;;;;;;;4993950;28;20549;-74
2020/12/20 03:08:44;;;;;;;21.77;12.43;;;;;;;;;;4982758;28;20545;-74
2020/12/20 03:11:49;;;;;;;22.57;13.13;;;;;;;;;;4982334;28;20640;-74
2020/12/20 03:14:55;;;;;;;20.17;12.07;;;;;;;;;;4985274;28;20535;-74
2020/12/20 03:17:59;;;;;;;21.37;12.63;;;;;;;;;;4963340;28;21191;-74
2020/12/20 03:21:03;;;;;;;21.37;12.87;;;;;;;;;;4974293;28;20636;-74
2020/12/20 03:24:18;;;;;;;20.93;12.77;;;;;;;;;;4978535;28;20585;-74
2020/12/20 03:27:52;;;;;;;20.20;12.00;;;;;;;;;;4994698;28;20616;-74
2020/12/20 03:31:14;;;;;;;20.90;13.00;;;;;;;;;;4976241;28;20681;-74
2020/12/20 03:34:27;;;;;;;26.33;13.07;;;;;;;;;;4990713;28;20601;-74
2020/12/20 03:37:53;;;;;;;28.43;13.83;;;;;;;;;;4993738;28;20557;-75
2020/12/20 03:41:00;;;;;;;23.87;12.70;;;;;;;;;;4971313;28;20679;-74
2020/12/20 03:44:04;;;;;;;22.80;12.93;;;;;;;;;;4968658;28;20629;-74
2020/12/20 03:47:08;;;;;;;22.47;12.97;;;;;;;;;;4973553;28;20605;-74
2020/12/20 03:50:14;;;;;;;24.37;13.20;;;;;;;;;;4973895;28;20618;-74
2020/12/20 03:53:18;;;;;;;22.60;13.10;;;;;;;;;;4969198;28;20620;-74
2020/12/20 03:56:35;;;;;;;19.80;12.20;;;;;;;;;;4981722;28;20610;-74
2020/12/20 03:59:54;;;;;;;21.60;12.37;;;;;;;;;;4981721;28;20601;-75
2020/12/20 04:02:58;;;;;;;22.60;13.37;;;;;;;;;;4970693;28;20609;-74
2020/12/20 04:06:07;;;;;;;22.37;13.27;;;;;;;;;;4981587;28;20542;-75
2020/12/20 04:09:11;;;;;;;21.43;12.30;;;;;;;;;;4993311;28;20604;-74
2020/12/20 04:12:31;;;;;;;20.27;12.57;;;;;;;;;;4981648;28;20621;-75
2020/12/20 04:15:36;;;;;;;19.37;12.57;;;;;;;;;;4981522;28;20597;-74
2020/12/20 04:18:43;;;;;;;20.17;12.10;;;;;;;;;;4981460;28;20624;-74
2020/12/20 04:21:48;;;;;;;20.73;13.33;;;;;;;;;;4981715;28;20629;-74
2020/12/20 04:25:12;;;;;;;20.73;12.20;;;;;;;;;;4974611;28;21102;-74
2020/12/20 04:28:36;;;;;;;20.63;12.97;;;;;;;;;;4974307;28;20543;-74
2020/12/20 04:32:03;;;;;;;21.37;12.23;;;;;;;;;;4973335;28;20622;-74
2020/12/20 04:35:09;;;;;;;19.17;11.77;;;;;;;;;;4962457;28;20559;-74
2020/12/20 04:38:14;;;;;;;20.47;12.70;;;;;;;;;;4971685;28;20601;-74
2020/12/20 04:41:22;;;;;;;18.73;11.97;;;;;;;;;;4981788;28;20996;-74
2020/12/20 04:44:31;;;;;;;18.23;11.83;;;;;;;;;;4981606;28;20531;-74
2020/12/20 04:47:44;;;;;;;20.97;12.13;;;;;;;;;;4981242;28;20554;-74
2020/12/20 04:50:52;;;;;;;17.53;11.13;;;;;;;;;;4970480;28;20663;-74
2020/12/20 04:53:58;;;;;;;19.73;11.50;;;;;;;;;;4981090;28;21159;-74
2020/12/20 04:57:07;;;;;;;19.63;11.63;;;;;;;;;;4992920;28;20550;-74
2020/12/20 05:00:17;;;;;;;19.40;12.20;;;;;;;;;;4972908;28;20598;-74
2020/12/20 05:03:22;;;;;;;23.00;12.87;;;;;;;;;;4971946;28;20652;-74
2020/12/20 05:06:29;;;;;;;20.70;11.33;;;;;;;;;;4981382;28;20608;-74
2020/12/20 05:09:48;;;;;;;19.50;11.73;;;;;;;;;;4981318;28;20625;-74
2020/12/20 05:12:55;;;;;;;20.30;11.87;;;;;;;;;;4980989;28;20953;-74
2020/12/20 05:16:06;;;;;;;19.43;11.50;;;;;;;;;;4969840;28;20604;-74
2020/12/20 05:19:30;;;;;;;17.73;11.03;;;;;;;;;;4984010;28;20561;-74
2020/12/20 05:22:36;;;;;;;17.27;11.27;;;;;;;;;;4984255;28;20659;-74
2020/12/20 05:25:45;;;;;;;19.47;12.27;;;;;;;;;;4984629;28;20556;-74
2020/12/20 05:28:50;;;;;;;18.43;11.70;;;;;;;;;;4984471;28;20972;-74
2020/12/20 05:31:55;;;;;;;21.33;12.33;;;;;;;;;;4995690;28;20628;-74
2020/12/20 05:35:13;;;;;;;17.47;11.17;;;;;;;;;;4964935;28;20555;-74
2020/12/20 05:38:20;;;;;;;20.30;12.33;;;;;;;;;;4978037;28;20606;-74
2020/12/20 05:41:30;;;;;;;21.03;12.03;;;;;;;;;;4984252;28;20625;-74
2020/12/20 05:44:35;;;;;;;20.43;11.70;;;;;;;;;;4969397;28;21211;-74
2020/12/20 05:47:44;;;;;;;20.03;12.23;;;;;;;;;;4984130;28;20564;-75
2020/12/20 05:51:01;;;;;;;19.97;12.97;;;;;;;;;;4983702;28;20668;-74
2020/12/20 05:54:15;;;;;;;22.07;12.27;;;;;;;;;;4983556;28;20593;-74
2020/12/20 05:57:21;;;;;;;19.67;11.73;;;;;;;;;;4995778;28;20965;-74
2020/12/20 06:00:28;;;;;;;21.13;11.83;;;;;;;;;;4995604;28;20628;-74
2020/12/20 06:03:33;;;;;;;23.57;12.80;;;;;;;;;;4995726;28;21238;-74
2020/12/20 06:06:40;;;;;;;21.93;13.13;;;;;;;;;;4995831;28;20608;-75
2020/12/20 06:09:56;;;;;;;21.90;12.20;;;;;;;;;;4983672;28;20597;-75
2020/12/20 06:13:06;;;;;;;21.97;12.70;;;;;;;;;;4983605;28;20972;-74
2020/12/20 06:16:10;;;;;;;21.80;13.00;;;;;;;;;;4994971;28;20601;-74
2020/12/20 06:19:23;;;;;;;20.50;11.37;;;;;;;;;;4995514;28;20594;-74
2020/12/20 06:22:34;;;;;;;20.83;13.00;;;;;;;;;;4994955;28;21250;-75
2020/12/20 06:25:44;;;;;;;20.80;12.17;;;;;;;;;;4983626;28;20572;-74
2020/12/20 06:28:50;;;;;;;18.43;11.30;;;;;;;;;;4994551;28;20628;-74
2020/12/20 06:31:56;;;;;;;21.40;12.67;;;;;;;;;;4995157;28;20628;-74
2020/12/20 06:35:22;;;;;;;22.10;12.13;;;;;;;;;;4988094;28;20956;-74
2020/12/20 06:38:26;;;;;;;17.90;11.73;;;;;;;;;;4995336;28;20549;-74
2020/12/20 06:41:35;;;;;;;20.83;12.63;;;;;;;;;;4975370;28;20669;-75
2020/12/20 06:44:39;;;;;;;26.83;12.97;;;;;;;;;;4994179;28;20592;-75
2020/12/20 06:47:51;;;;;;;23.23;12.47;;;;;;;;;;4994754;28;20597;-74
2020/12/20 06:50:55;;;;;;;19.07;11.60;;;;;;;;;;4994045;28;20648;-74
2020/12/20 06:54:00;;;;;;;22.57;12.83;;;;;;;;;;4994418;28;20604;-74
2020/12/20 06:57:10;;;;;;;24.10;12.53;;;;;;;;;;5002594;28;21300;-74
2020/12/20 07:00:40;;;;;;;21.30;12.20;;;;;;;;;;4994580;28;20545;-74
2020/12/20 07:03:45;;;;;;;21.30;13.17;;;;;;;;;;4991465;28;20635;-74
2020/12/20 07:07:06;;;;;;;20.33;11.33;;;;;;;;;;5001647;28;20607;-74
2020/12/20 07:10:42;;;;;;;18.40;11.37;;;;;;;;;;5002072;28;20560;-74
2020/12/20 07:13:48;;;;;;;18.27;11.13;;;;;;;;;;4989808;28;21168;-74
2020/12/20 07:16:52;;;;;;;17.93;11.13;;;;;;;;;;5009000;28;20580;-74
2020/12/20 07:20:08;;;;;;;18.57;11.20;;;;;;;;;;5001454;28;20623;-74
2020/12/20 07:23:12;;;;;;;17.37;11.27;;;;;;;;;;5001920;28;20959;-75
2020/12/20 07:26:16;;;;;;;21.83;12.17;;;;;;;;;;4989280;28;21161;-75
2020/12/20 07:29:20;;;;;;;20.10;12.03;;;;;;;;;;4985992;28;20587;-75
2020/12/20 07:32:25;;;;;;;21.23;11.93;;;;;;;;;;5012878;28;20627;-75
2020/12/20 07:35:29;;;;;;;18.87;11.07;;;;;;;;;;4998085;28;20600;-75
2020/12/20 07:38:33;;;;;;;17.03;10.57;;;;;;;;;;4994065;28;20592;-75
2020/12/20 07:41:37;;;;;;;22.77;12.90;;;;;;;;;;4993324;28;20664;-75
2020/12/20 07:44:41;;;;;;;23.00;12.43;;;;;;;;;;4985869;28;21216;-75
2020/12/20 07:47:51;;;;;;;20.43;12.33;;;;;;;;;;5010961;28;20623;-75
2020/12/20 07:51:12;;;;;;;20.30;11.97;;;;;;;;;;5013821;28;20626;-75
2020/12/20 07:54:16;;;;;;;22.53;12.27;;;;;;;;;;5012661;28;20959;-75
2020/12/20 07:57:20;;;;;;;22.67;12.33;;;;;;;;;;5012110;28;21176;-75
2020/12/20 08:00:24;;;;;;;24.73;13.17;;;;;;;;;;5013019;28;20947;-75
2020/12/20 08:03:29;;;;;;;21.43;11.83;;;;;;;;;;5000781;28;21205;-75
2020/12/20 08:06:41;;;;;;;19.70;11.60;;;;;;;;;;5001443;28;20548;-75
2020/12/20 08:09:54;;;;;;;19.87;11.43;;;;;;;;;;4994071;28;20538;-75
2020/12/20 08:12:58;;;;;;;20.40;11.93;;;;;;;;;;4997928;28;20608;-74
2020/12/20 08:16:02;;;;;;;19.97;10.80;;;;;;;;;;5001076;28;20599;-74
2020/12/20 08:19:20;;;;;;;17.40;10.77;;;;;;;;;;5013057;28;20585;-74
2020/12/20 08:22:28;;;;;;;17.37;10.37;;;;;;;;;;5012942;28;20688;-73
2020/12/20 08:25:32;;;;;;;17.63;10.73;;;;;;;;;;5012940;28;20605;-73
2020/12/20 08:28:36;;;;;;;15.50;10.23;;;;;;;;;;4993645;28;20585;-74
2020/12/20 08:31:40;;;;;;;16.47;10.27;;;;;;;;;;4993560;28;21258;-73
2020/12/20 08:34:45;;;;;;;17.13;10.40;;;;;;;;;;4984193;28;20943;-73
2020/12/20 08:37:55;;;;;;;17.43;10.80;;;;;;;;;;5009309;28;20951;-73
2020/12/20 08:40:59;;;;;;;17.73;11.20;;;;;;;;;;4994529;28;20958;-73
2020/12/20 08:44:14;;;;;;;16.97;10.77;;;;;;;;;;5000781;28;20991;-73
2020/12/20 08:47:19;;;;;;;17.73;10.70;;;;;;;;;;5013007;28;20596;-73
2020/12/20 08:50:25;;;;;;;16.03;10.43;;;;;;;;;;5001362;28;20548;-73
2020/12/20 08:53:30;;;;;;;19.30;10.80;;;;;;;;;;5003549;28;21158;-73
2020/12/20 08:56:34;;;;;;;19.07;10.80;;;;;;;;;;5004724;28;20557;-73
2020/12/20 08:59:42;;;;;;;17.60;10.47;;;;;;;;;;5009553;28;20584;-73
2020/12/20 09:02:56;;;;;;;18.93;11.07;;;;;;;;;;5016672;28;20588;-73
2020/12/20 09:06:12;;;;;;;16.13;9.97;;;;;;;;;;5005616;28;20569;-73
2020/12/20 09:09:15;;;;;;;18.13;10.87;;;;;;;;;;5016840;28;20584;-73
2020/12/20 09:12:19;;;;;;;18.13;11.33;;;;;;;;;;5016087;28;21225;-73
2020/12/20 09:15:30;;;;;;;18.60;10.80;;;;;;;;;;5004206;28;20593;-73
2020/12/20 09:18:36;;;;;;;16.67;10.30;;;;;;;;;;5004451;28;20549;-73
2020/12/20 09:21:47;;;;;;;16.70;10.50;;;;;;;;;;5000179;28;20643;-73
2020/12/20 09:24:51;;;;;;;17.93;10.53;;;;;;;;;;4996739;28;20645;-73
2020/12/20 09:27:59;;;;;;;18.57;10.10;;;;;;;;;;5029985;28;20580;-73
2020/12/20 09:31:16;;;;;;;19.13;10.97;;;;;;;;;;5036192;28;20623;-74
2020/12/20 09:34:31;;;;;;;15.90;10.40;;;;;;;;;;5005142;28;20588;-73
2020/12/20 09:37:40;;;;;;;18.43;10.63;;;;;;;;;;5016052;28;20597;-73
2020/12/20 09:40:44;;;;;;;17.30;10.77;;;;;;;;;;5016612;28;20952;-73
2020/12/20 09:43:50;;;;;;;17.77;10.60;;;;;;;;;;4997871;28;20639;-73
2020/12/20 09:46:55;;;;;;;17.80;10.70;;;;;;;;;;4992552;28;20632;-73
2020/12/20 09:49:59;;;;;;;20.50;11.90;;;;;;;;;;5016012;28;20600;-73
2020/12/20 09:53:03;;;;;;;19.63;11.40;;;;;;;;;;5015786;28;20596;-73
2020/12/20 09:56:08;;;;;;;17.37;11.63;;;;;;;;;;4998655;28;21155;-73
2020/12/20 09:59:12;;;;;;;17.90;11.00;;;;;;;;;;4996397;28;20593;-73
2020/12/20 10:02:16;;;;;;;20.40;12.03;;;;;;;;;;5003276;28;20651;-73
2020/12/20 10:05:20;;;;;;;19.40;11.13;;;;;;;;;;5003688;28;20648;-73
2020/12/20 10:08:26;;;;;;;17.70;10.83;;;;;;;;;;5003529;28;20540;-73
2020/12/20 10:11:30;;;;;;;19.40;11.13;;;;;;;;;;5014853;28;20652;-73
2020/12/20 10:14:34;;;;;;;17.50;10.90;;;;;;;;;;4983527;28;20597;-73
2020/12/20 10:17:38;;;;;;;16.33;10.07;;;;;;;;;;5009430;28;20631;-73
2020/12/20 10:20:42;;;;;;;17.37;10.40;;;;;;;;;;5014710;28;21274;-73
2020/12/20 10:23:46;;;;;;;17.50;10.93;;;;;;;;;;4980042;28;20584;-73
2020/12/20 10:26:50;;;;;;;16.33;10.13;;;;;;;;;;4991874;28;20893;-73
2020/12/20 10:29:55;;;;;;;17.53;11.00;;;;;;;;;;4980256;28;20584;-73
2020/12/20 10:32:59;;;;;;;16.47;10.10;;;;;;;;;;5002731;28;20585;-73
2020/12/20 10:36:03;;;;;;;17.27;10.07;;;;;;;;;;5014880;28;20537;-73
2020/12/20 10:39:08;;;;;;;15.97;9.90;;;;;;;;;;5014853;28;20619;-73
2020/12/20 10:42:15;;;;;;;15.37;9.33;;;;;;;;;;5014669;28;20652;-73
2020/12/20 10:45:19;;;;;;;16.10;10.67;;;;;;;;;;5002898;28;20644;-74
2020/12/20 10:48:23;;;;;;;17.53;10.80;;;;;;;;;;4995107;28;20901;-72
2020/12/20 10:51:28;;;;;;;18.00;10.87;;;;;;;;;;5014207;28;20637;-73
2020/12/20 10:54:32;;;;;;;21.07;11.07;;;;;;;;;;5007129;28;20593;-73
2020/12/20 10:57:36;;;;;;;18.77;11.47;;;;;;;;;;5012704;28;21177;-73
2020/12/20 11:00:39;;;;;;;18.90;10.80;;;;;;;;;;4994683;28;20653;-73
2020/12/20 11:03:46;;;;;;;17.27;10.37;;;;;;;;;;4982703;28;20606;-72
2020/12/20 11:06:54;;;;;;;17.13;10.33;;;;;;;;;;4982093;28;20600;-73
2020/12/20 11:09:58;;;;;;;18.23;11.37;;;;;;;;;;4983490;28;20577;-73
2020/12/20 11:13:02;;;;;;;17.73;10.13;;;;;;;;;;5012788;28;20584;-73
2020/12/20 11:16:17;;;;;;;18.87;10.37;;;;;;;;;;5012646;28;21114;-73
2020/12/20 11:19:21;;;;;;;18.50;11.30;;;;;;;;;;5013647;28;20604;-73
2020/12/20 11:22:25;;;;;;;14.73;8.87;;;;;;;;;;4988243;28;21007;-73
2020/12/20 11:25:30;;;;;;;16.83;10.47;;;;;;;;;;4983190;28;20605;-73
2020/12/20 11:28:34;;;;;;;16.70;10.37;;;;;;;;;;4995318;28;20933;-73
2020/12/20 11:31:38;;;;;;;19.40;12.03;;;;;;;;;;4982227;28;20647;-73
2020/12/20 11:34:42;;;;;;;14.83;9.93;;;;;;;;;;4995233;28;20577;-73
2020/12/20 11:37:47;;;;;;;16.07;10.13;;;;;;;;;;5009101;28;20925;-73
2020/12/20 11:40:52;;;;;;;13.93;8.80;;;;;;;;;;5001491;28;20644;-73
2020/12/20 11:43:55;;;;;;;12.80;8.53;;;;;;;;;;4990441;28;20541;-73
2020/12/20 11:46:59;;;;;;;13.60;8.93;;;;;;;;;;5005836;28;20941;-73
2020/12/20 11:50:04;;;;;;;13.30;8.60;;;;;;;;;;4994789;28;20600;-73
2020/12/20 11:53:09;;;;;;;14.80;9.63;;;;;;;;;;4993819;28;20586;-73
2020/12/20 11:56:16;;;;;;;14.60;8.77;;;;;;;;;;5013368;28;20553;-73
2020/12/20 11:59:20;;;;;;;12.40;8.13;;;;;;;;;;5009967;28;20573;-73
2020/12/20 12:02:24;;;;;;;14.80;9.17;;;;;;;;;;4990915;28;20640;-73
2020/12/20 12:05:29;;;;;;;13.93;9.13;;;;;;;;;;5001853;28;20596;-73
2020/12/20 12:08:33;;;;;;;13.90;9.17;;;;;;;;;;4990080;28;20588;-73
2020/12/20 12:11:37;;;;;;;14.23;9.23;;;;;;;;;;5012961;28;20647;-73
2020/12/20 12:14:41;;;;;;;17.57;9.80;;;;;;;;;;5014053;28;20885;-73
2020/12/20 12:17:46;;;;;;;15.87;9.37;;;;;;;;;;5001193;28;20596;-73
2020/12/20 12:20:50;;;;;;;21.80;10.60;;;;;;;;;;5013262;28;20620;-73
2020/12/20 12:23:54;;;;;;;14.30;9.30;;;;;;;;;;4993556;28;20907;-72
2020/12/20 12:26:58;;;;;;;19.87;10.50;;;;;;;;;;5013159;28;20576;-72
2020/12/20 12:30:03;;;;;;;25.47;13.83;;;;;;;;;;4997893;28;20549;-73
2020/12/20 12:33:08;;;;;;;22.90;12.77;;;;;;;;;;4998181;28;20561;-73
2020/12/20 12:36:12;;;;;;;19.67;11.90;;;;;;;;;;4997830;28;20557;-73
2020/12/20 12:39:16;;;;;;;15.40;10.23;;;;;;;;;;4997596;28;20609;-73
2020/12/20 12:42:20;;;;;;;17.17;10.23;;;;;;;;;;4997014;28;20625;-73
2020/12/20 12:45:25;;;;;;;17.40;10.53;;;;;;;;;;4997055;28;20648;-73
2020/12/20 12:48:29;;;;;;;16.50;10.10;;;;;;;;;;4997484;28;20558;-73
2020/12/20 12:51:33;;;;;;;15.10;9.67;;;;;;;;;;4997747;28;20624;-73
2020/12/20 12:54:38;;;;;;;27.03;15.33;;;;;;;;;;4997114;28;20546;-73
2020/12/20 12:57:42;;;;;;;18.90;10.30;;;;;;;;;;4997795;28;20558;-73
2020/12/20 13:00:46;;;;;;;18.63;11.27;;;;;;;;;;4997690;28;20621;-73
2020/12/20 13:03:50;;;;;;;16.03;9.30;;;;;;;;;;4997616;28;20550;-73
2020/12/20 13:06:55;;;;;;;20.63;10.00;;;;;;;;;;4985855;28;20538;-73
2020/12/20 13:09:59;;;;;;;17.97;9.93;;;;;;;;;;4996500;28;20551;-72
2020/12/20 13:13:03;;;;;;;32.50;19.53;;;;;;;;;;4996504;28;20545;-73
2020/12/20 13:16:10;;;;;;;18.43;11.53;;;;;;;;;;4996964;28;20878;-73
2020/12/20 13:19:15;;;;;;;18.23;10.40;;;;;;;;;;4997815;28;20546;-73
2020/12/20 13:22:19;;;;;;;16.67;9.97;;;;;;;;;;4997035;28;20625;-73
2020/12/20 13:25:24;;;;;;;13.17;9.60;;;;;;;;;;4997281;28;20644;-73
2020/12/20 13:28:28;;;;;;;15.30;9.27;;;;;;;;;;4997368;28;20597;-73
2020/12/20 13:31:32;;;;;;;15.73;9.57;;;;;;;;;;4997015;28;20628;-73
2020/12/20 13:34:36;;;;;;;12.73;8.60;;;;;;;;;;4996733;28;20542;-74
2020/12/20 13:37:41;;;;;;;16.70;10.27;;;;;;;;;;4996089;28;20542;-73
2020/12/20 13:40:45;;;;;;;17.57;10.50;;;;;;;;;;4996101;28;20625;-73
2020/12/20 13:43:50;;;;;;;14.90;9.53;;;;;;;;;;4997032;28;20546;-73
2020/12/20 13:46:54;;;;;;;15.70;9.97;;;;;;;;;;4995605;28;20665;-73
2020/12/20 13:49:59;;;;;;;19.90;11.07;;;;;;;;;;5016374;28;20552;-73
2020/12/20 13:53:03;;;;;;;17.20;10.20;;;;;;;;;;5016230;28;20552;-73
2020/12/20 13:56:07;;;;;;;16.47;10.20;;;;;;;;;;5004498;28;20541;-74
2020/12/20 13:59:11;;;;;;;18.10;10.23;;;;;;;;;;5015835;28;20671;-73
2020/12/20 14:02:15;;;;;;;16.10;9.77;;;;;;;;;;5015913;28;20623;-73
2020/12/20 14:05:20;;;;;;;14.93;9.43;;;;;;;;;;5015288;28;20593;-73
2020/12/20 14:08:23;;;;;;;14.23;9.10;;;;;;;;;;5003996;28;20545;-73
2020/12/20 14:11:28;;;;;;;16.97;9.50;;;;;;;;;;5014780;28;20627;-73
2020/12/20 14:14:32;;;;;;;15.63;9.23;;;;;;;;;;5015632;28;20596;-73
2020/12/20 14:17:37;;;;;;;15.50;9.13;;;;;;;;;;5014775;28;20596;-73
2020/12/20 14:20:41;;;;;;;17.83;9.50;;;;;;;;;;4992424;28;20972;-73
2020/12/20 14:23:45;;;;;;;14.47;9.47;;;;;;;;;;5015137;28;20549;-73
2020/12/20 14:26:53;;;;;;;17.33;10.60;;;;;;;;;;5014942;28;20604;-73
2020/12/20 14:29:58;;;;;;;16.10;9.93;;;;;;;;;;5015248;28;20545;-73
2020/12/20 14:33:03;;;;;;;14.00;8.47;;;;;;;;;;5014928;28;20561;-73
2020/12/20 14:36:08;;;;;;;12.40;8.23;;;;;;;;;;5015045;28;20541;-73
2020/12/20 14:39:12;;;;;;;13.20;8.83;;;;;;;;;;5014717;28;20596;-73
2020/12/20 14:42:22;;;;;;;17.77;9.67;;;;;;;;;;5002570;28;20619;-73
2020/12/20 14:45:26;;;;;;;22.57;9.40;;;;;;;;;;5002621;28;20656;-73
2020/12/20 14:48:31;;;;;;;14.47;9.40;;;;;;;;;;5014606;28;20553;-73
2020/12/20 14:51:35;;;;;;;15.20;9.53;;;;;;;;;;5014068;28;20619;-73
2020/12/20 14:54:40;;;;;;;15.30;9.33;;;;;;;;;;5013644;28;20600;-73
2020/12/20 14:57:46;;;;;;;14.63;9.33;;;;;;;;;;5002295;28;20588;-73
2020/12/20 15:00:51;;;;;;;16.13;9.80;;;;;;;;;;4996915;28;20648;-73
2020/12/20 15:03:55;;;;;;;56.60;12.90;;;;;;;;;;5013527;28;20553;-72
2020/12/20 15:06:59;;;;;;;14.97;9.43;;;;;;;;;;5014437;28;20924;-73
2020/12/20 15:10:04;;;;;;;14.47;9.53;;;;;;;;;;5014449;28;20561;-73
2020/12/20 15:13:09;;;;;;;12.43;8.27;;;;;;;;;;4999593;28;20945;-73
2020/12/20 15:16:14;;;;;;;12.60;8.10;;;;;;;;;;4982559;28;20586;-73
2020/12/20 15:19:18;;;;;;;12.57;8.33;;;;;;;;;;5005241;28;20593;-73
2020/12/20 15:22:22;;;;;;;12.73;8.13;;;;;;;;;;4990957;28;21225;-73
2020/12/20 15:25:26;;;;;;;15.93;9.33;;;;;;;;;;5013681;28;20612;-74
2020/12/20 15:28:30;;;;;;;12.93;8.10;;;;;;;;;;5013758;28;20592;-73
2020/12/20 15:31:34;;;;;;;14.07;8.70;;;;;;;;;;5004959;28;20655;-73
2020/12/20 15:34:40;;;;;;;16.10;9.50;;;;;;;;;;5012359;28;21150;-73
2020/12/20 15:37:44;;;;;;;15.37;9.93;;;;;;;;;;4997928;28;21201;-73
2020/12/20 15:40:48;;;;;;;15.23;9.57;;;;;;;;;;4998494;28;20655;-73
2020/12/20 15:43:53;;;;;;;15.87;9.83;;;;;;;;;;5012552;28;20592;-73
2020/12/20 15:47:01;;;;;;;16.10;10.67;;;;;;;;;;5013448;28;20992;-73
2020/12/20 15:50:06;;;;;;;18.47;10.10;;;;;;;;;;5003059;28;20574;-73
2020/12/20 15:53:10;;;;;;;17.57;10.00;;;;;;;;;;4993994;28;20550;-73
2020/12/20 15:56:14;;;;;;;16.93;10.10;;;;;;;;;;4998854;28;20589;-74
2020/12/20 15:59:18;;;;;;;16.70;9.50;;;;;;;;;;5012192;28;20933;-73
2020/12/20 16:02:22;;;;;;;16.87;9.87;;;;;;;;;;5008487;28;20643;-73
2020/12/20 16:05:26;;;;;;;15.47;8.70;;;;;;;;;;5005339;28;20588;-73
2020/12/20 16:08:32;;;;;;;18.03;9.77;;;;;;;;;;5013284;28;20541;-73
2020/12/20 16:11:36;;;;;;;16.57;9.53;;;;;;;;;;5001099;28;20620;-73
2020/12/20 16:14:40;;;;;;;15.97;10.47;;;;;;;;;;4995232;28;20589;-73
2020/12/20 16:17:46;;;;;;;17.77;10.40;;;;;;;;;;4996980;28;20586;-73
2020/12/20 16:20:52;;;;;;;17.77;10.40;;;;;;;;;;5012434;28;20651;-73
2020/12/20 16:23:57;;;;;;;18.33;11.07;;;;;;;;;;5013667;28;21099;-73
2020/12/20 16:27:01;;;;;;;17.27;10.00;;;;;;;;;;5003389;28;20626;-73
2020/12/20 16:30:05;;;;;;;19.23;10.73;;;;;;;;;;4986488;28;20576;-73
2020/12/20 16:33:10;;;;;;;16.80;10.60;;;;;;;;;;5000489;28;20628;-73
2020/12/20 16:36:17;;;;;;;20.63;11.17;;;;;;;;;;4981549;28;20585;-73
2020/12/20 16:39:21;;;;;;;20.87;10.70;;;;;;;;;;4996180;28;20603;-73
2020/12/20 16:42:25;;;;;;;21.07;11.47;;;;;;;;;;5012401;28;20648;-73
2020/12/20 16:45:29;;;;;;;17.97;10.57;;;;;;;;;;4998572;28;20620;-73
2020/12/20 16:48:34;;;;;;;18.63;10.80;;;;;;;;;;4995211;28;20608;-73
2020/12/20 16:51:39;;;;;;;19.83;10.73;;;;;;;;;;4993375;28;20656;-73
2020/12/20 16:54:43;;;;;;;17.83;10.17;;;;;;;;;;5006137;28;20585;-73
2020/12/20 16:57:48;;;;;;;19.17;10.60;;;;;;;;;;5013048;28;20573;-73
2020/12/20 17:00:53;;;;;;;17.10;10.50;;;;;;;;;;5011268;28;20640;-73
2020/12/20 17:03:57;;;;;;;23.07;11.77;;;;;;;;;;5010469;28;20581;-73
2020/12/20 17:07:01;;;;;;;17.77;10.50;;;;;;;;;;4993336;28;20648;-73
2020/12/20 17:10:05;;;;;;;25.80;11.27;;;;;;;;;;4982544;28;20566;-73
2020/12/20 17:13:10;;;;;;;20.03;10.87;;;;;;;;;;5011620;28;20592;-73
2020/12/20 17:16:15;;;;;;;20.17;10.90;;;;;;;;;;5016219;28;20596;-73
2020/12/20 17:19:19;;;;;;;17.57;10.93;;;;;;;;;;5003567;28;20584;-73
2020/12/20 17:22:24;;;;;;;17.90;10.43;;;;;;;;;;5015954;28;20620;-73
2020/12/20 17:25:28;;;;;;;17.67;11.03;;;;;;;;;;5003105;28;20928;-73
2020/12/20 17:28:33;;;;;;;18.73;11.07;;;;;;;;;;5007325;28;20594;-72
2020/12/20 17:31:37;;;;;;;19.37;10.63;;;;;;;;;;5003797;28;20636;-72
2020/12/20 17:34:41;;;;;;;19.63;11.03;;;;;;;;;;5016291;28;20584;-73
2020/12/20 17:37:46;;;;;;;20.70;11.37;;;;;;;;;;4989130;28;20593;-72
2020/12/20 17:40:50;;;;;;;22.23;12.40;;;;;;;;;;4996812;28;20621;-73
2020/12/20 17:43:55;;;;;;;21.47;11.53;;;;;;;;;;4999011;28;20581;-73
2020/12/20 17:46:59;;;;;;;19.87;11.13;;;;;;;;;;4984728;28;20649;-73
2020/12/20 17:50:06;;;;;;;19.07;10.67;;;;;;;;;;5013926;28;20580;-73
2020/12/20 17:53:10;;;;;;;19.07;11.37;;;;;;;;;;5003288;28;20584;-73
2020/12/20 17:56:16;;;;;;;19.63;11.80;;;;;;;;;;5015822;28;20580;-72
2020/12/20 17:59:21;;;;;;;20.07;11.87;;;;;;;;;;5001024;28;20599;-73
2020/12/20 18:02:25;;;;;;;20.67;11.67;;;;;;;;;;4997204;28;20997;-73
2020/12/20 18:05:30;;;;;;;20.13;11.40;;;;;;;;;;5004448;28;20584;-72
2020/12/20 18:08:34;;;;;;;19.90;11.47;;;;;;;;;;5002848;28;21155;-73